Time;durP1;ratioP1;P1;durP2;ratioP2;P2;SDS_P1;SDS_P2;PMS_P1;PMS_P2;Temp;Humidity;BMP_temperature;BMP_pressure;BME280_temperature;BME280_humidity;BME280_pressure;Samples;Min_cycle;Max_cycle;Signal;HPM_P1;HPM_P2
2022/03/27 00:00:28;;;;;;;7.60;3.15;;;;;;;20.42;52.93;100371.78;4932009;29;20076;-78
2022/03/27 00:02:58;;;;;;;6.45;2.80;;;;;;;20.42;53.03;100365.66;4931925;29;20080;-78
2022/03/27 00:05:26;;;;;;;3.50;2.22;;;;;;;20.43;52.42;100367.38;4931574;29;20118;-76
2022/03/27 00:08:01;;;;;;;5.70;2.33;;;;;;;20.39;52.47;100365.72;4931649;28;20633;-77
2022/03/27 00:11:23;;;;;;;3.33;2.35;;;;;;;20.36;53.91;100365.75;4912619;29;20086;-76
2022/03/27 00:13:18;;;;;;;4.25;2.70;;;;;;;20.19;54.41;100353.78;4917788;29;20154;-77
2022/03/27 00:15:47;;;;;;;6.75;2.78;;;;;;;20.09;54.20;100357.47;4933910;29;20051;-77
2022/03/27 00:18:17;;;;;;;3.22;1.90;;;;;;;20.05;53.29;100356.63;4931982;29;20119;-77
2022/03/27 00:20:45;;;;;;;4.93;2.20;;;;;;;20.02;53.50;100353.19;4931933;29;20048;-76
2022/03/27 00:23:14;;;;;;;3.00;1.80;;;;;;;20.01;54.38;100354.09;4930707;29;20052;-77
2022/03/27 00:25:43;;;;;;;3.00;1.60;;;;;;;19.98;53.54;100347.13;4931826;29;20051;-77
2022/03/27 00:28:11;;;;;;;4.50;2.00;;;;;;;19.93;53.77;100340.19;4931367;29;20055;-77
2022/03/27 00:30:40;;;;;;;3.22;1.83;;;;;;;19.88;53.39;100333.28;4931286;29;20063;-77
2022/03/27 00:33:09;;;;;;;4.85;2.10;;;;;;;19.83;54.00;100329.84;4934162;29;20139;-78
2022/03/27 00:35:39;;;;;;;2.83;1.73;;;;;;;19.78;53.90;100331.66;4935141;29;20052;-77
2022/03/27 00:38:08;;;;;;;4.18;2.85;;;;;;;19.76;54.01;100330.81;4934882;29;20123;-78
2022/03/27 00:40:36;;;;;;;4.05;2.70;;;;;;;19.73;53.89;100323.00;4935005;29;20051;-80
2022/03/27 00:43:05;;;;;;;2.80;1.77;;;;;;;19.67;53.96;100320.44;4935646;29;20063;-79
2022/03/27 00:45:40;;;;;;;3.72;2.00;;;;;;;19.61;53.91;100323.16;4934728;29;20179;-76
2022/03/27 00:48:08;;;;;;;4.15;2.13;;;;;;;19.57;54.60;100324.09;4935506;29;20051;-78
2022/03/27 00:50:39;;;;;;;5.28;2.10;;;;;;;19.56;54.91;100327.59;4935458;29;20071;-77
2022/03/27 00:53:08;;;;;;;5.97;2.42;;;;;;;19.52;55.66;100323.28;4934486;29;20091;-78
2022/03/27 00:55:36;;;;;;;3.05;2.28;;;;;;;19.48;55.71;100332.09;4935134;29;20052;-78
2022/03/27 00:58:05;;;;;;;3.53;1.92;;;;;;;19.39;55.26;100320.81;4933992;29;20047;-76
2022/03/27 01:01:15;;;;;;;3.50;2.03;;;;;;;19.37;55.09;100325.22;4934211;29;20494;-76
2022/03/27 01:03:47;;;;;;;2.88;1.98;;;;;;;19.28;55.69;100309.59;4887911;29;20058;-77
2022/03/27 01:06:30;;;;;;;5.43;2.65;;;;;;;19.29;55.06;100316.59;4934925;29;20051;-76
2022/03/27 01:11:44;;;;;;;5.20;2.05;;;;;;;19.17;55.88;100304.53;4935134;29;20629;-77
2022/03/27 01:14:14;;;;;;;2.63;1.67;;;;;;;19.17;56.56;100308.88;4934495;29;20052;-77
2022/03/27 01:16:44;;;;;;;2.70;1.70;;;;;;;19.14;56.45;100306.31;4934726;29;20055;-75
2022/03/27 01:19:16;;;;;;;3.28;1.67;;;;;;;19.11;55.89;100295.88;4934575;29;20055;-76
2022/03/27 01:21:47;;;;;;;2.92;1.50;;;;;;;19.05;56.75;100294.16;4934148;29;20115;-76
2022/03/27 01:24:20;;;;;;;5.05;1.77;;;;;;;18.99;56.26;100294.28;4933596;29;20556;-75
2022/03/27 01:26:49;;;;;;;3.55;1.52;;;;;;;18.94;56.78;100291.69;4935266;29;20497;-77
2022/03/27 01:29:17;;;;;;;3.00;1.45;;;;;;;18.90;56.95;100281.25;4933616;29;20844;-78
2022/03/27 01:31:47;;;;;;;8.90;1.50;;;;;;;18.85;56.92;100289.16;4934206;29;20099;-77
2022/03/27 01:34:16;;;;;;;2.58;1.70;;;;;;;18.83;57.17;100289.19;4933139;29;20078;-77
2022/03/27 01:36:46;;;;;;;2.25;1.45;;;;;;;18.82;56.94;100281.34;4934230;29;20083;-77
2022/03/27 01:39:16;;;;;;;3.33;1.55;;;;;;;18.78;57.40;100271.78;4933815;29;20127;-78
2022/03/27 01:41:45;;;;;;;3.53;1.48;;;;;;;18.76;58.03;100276.13;4934573;29;20083;-77
2022/03/27 01:44:15;;;;;;;3.38;1.30;;;;;;;18.71;57.98;100276.19;4934455;29;20048;-77
2022/03/27 01:46:45;;;;;;;4.18;1.80;;;;;;;18.69;58.49;100277.09;4933516;29;20059;-74
2022/03/27 01:49:16;;;;;;;1.90;1.50;;;;;;;18.63;57.70;100263.19;4933844;29;20095;-76
2022/03/27 01:51:47;;;;;;;2.88;1.88;;;;;;;18.64;58.00;100271.91;4934432;29;20059;-77
2022/03/27 01:54:15;;;;;;;5.60;2.72;;;;;;;18.61;58.46;100259.72;4933420;29;20044;-78
2022/03/27 01:56:44;;;;;;;5.53;2.65;;;;;;;18.54;58.24;100254.56;4933258;29;20048;-79
2022/03/27 01:59:13;;;;;;;2.92;2.30;;;;;;;18.50;57.97;100261.59;4933507;29;20532;-78
2022/03/27 02:01:41;;;;;;;2.88;2.15;;;;;;;18.43;58.31;100249.44;4933556;29;20047;-78
2022/03/27 02:04:11;;;;;;;4.32;1.98;;;;;;;18.41;58.88;100259.91;4936107;29;20051;-80
2022/03/27 02:06:39;;;;;;;3.28;2.20;;;;;;;18.36;59.22;100250.38;4934275;29;20167;-77
2022/03/27 02:09:12;;;;;;;3.00;2.22;;;;;;;18.30;58.37;100247.81;4928118;28;20059;-77
2022/03/27 02:11:41;;;;;;;3.55;1.90;;;;;;;18.24;58.67;100253.16;4914997;29;20131;-78
2022/03/27 02:14:10;;;;;;;3.17;2.00;;;;;;;18.18;58.92;100247.06;4927164;29;20066;-77
2022/03/27 02:16:39;;;;;;;4.55;2.70;;;;;;;18.13;58.46;100243.63;4933021;29;20321;-76
2022/03/27 02:19:09;;;;;;;5.43;2.53;;;;;;;18.08;58.81;100245.44;4933170;29;20075;-76
2022/03/27 02:21:38;;;;;;;6.05;3.17;;;;;;;18.02;59.21;100244.63;4932764;29;20051;-77
2022/03/27 02:24:09;;;;;;;4.93;3.30;;;;;;;17.98;60.11;100251.63;4932367;29;20114;-76
2022/03/27 02:26:43;;;;;;;8.88;4.03;;;;;;;17.91;60.05;100244.72;4933092;29;20051;-77
2022/03/27 02:29:13;;;;;;;10.05;4.22;;;;;;;17.84;59.96;100245.66;4932749;29;20051;-76
2022/03/27 02:31:42;;;;;;;6.85;4.18;;;;;;;17.77;60.17;100243.06;4933026;29;20047;-77
2022/03/27 02:34:10;;;;;;;7.35;3.53;;;;;;;17.73;60.55;100240.47;4933102;29;20110;-76
2022/03/27 02:36:39;;;;;;;5.60;3.20;;;;;;;17.67;59.75;100236.16;4933127;29;20103;-77
2022/03/27 02:39:09;;;;;;;5.32;2.60;;;;;;;17.62;60.13;100226.63;4932896;29;20106;-74
2022/03/27 02:41:38;;;;;;;4.18;2.50;;;;;;;17.56;60.15;100232.75;4933080;29;20305;-74
2022/03/27 02:44:08;;;;;;;3.60;2.08;;;;;;;17.52;60.96;100220.56;4932760;29;20552;-75
2022/03/27 02:46:36;;;;;;;4.10;1.65;;;;;;;17.47;61.07;100230.19;4932759;29;20669;-77
2022/03/27 02:49:04;;;;;;;2.25;1.55;;;;;;;17.41;60.21;100232.84;4934110;29;20103;-76
2022/03/27 02:51:33;;;;;;;3.80;1.40;;;;;;;17.37;60.83;100217.19;4933373;29;20047;-76
2022/03/27 02:54:02;;;;;;;3.58;1.55;;;;;;;17.35;61.17;100218.94;4932182;29;20067;-78
2022/03/27 02:56:32;;;;;;;2.70;1.50;;;;;;;17.31;61.27;100206.75;4933406;29;20538;-76
2022/03/27 02:59:00;;;;;;;2.78;1.98;;;;;;;17.30;61.40;100214.63;4935638;29;20119;-77
2022/03/27 03:01:29;;;;;;;3.72;1.77;;;;;;;17.25;61.70;100206.81;4933660;29;20131;-78
2022/03/27 03:03:58;;;;;;;2.95;1.70;;;;;;;17.23;61.87;100203.34;4932559;29;20099;-78
2022/03/27 03:06:27;;;;;;;5.10;2.28;;;;;;;17.20;62.24;100208.56;4932886;29;20569;-76
2022/03/27 03:08:55;;;;;;;2.95;1.75;;;;;;;17.17;62.01;100198.16;4932229;28;20522;-78
2022/03/27 03:11:24;;;;;;;4.10;1.92;;;;;;;17.14;61.80;100203.41;4932366;29;20051;-78
2022/03/27 03:13:54;;;;;;;3.33;1.70;;;;;;;17.07;62.53;100194.72;4932454;29;20047;-77
2022/03/27 03:16:24;;;;;;;4.50;1.75;;;;;;;17.01;63.13;100200.00;4932229;29;20052;-77
2022/03/27 03:18:52;;;;;;;3.65;1.85;;;;;;;16.95;63.36;100200.91;4931956;29;20639;-78
2022/03/27 03:21:21;;;;;;;3.47;1.77;;;;;;;16.88;63.83;100185.25;4932794;29;20055;-78
2022/03/27 03:23:50;;;;;;;2.50;1.50;;;;;;;16.86;63.39;100187.00;4931617;29;20134;-77
2022/03/27 03:26:18;;;;;;;3.03;1.63;;;;;;;16.83;63.88;100192.25;4932385;29;20082;-76
2022/03/27 03:28:47;;;;;;;2.67;1.23;;;;;;;16.78;63.42;100194.84;4931767;29;20051;-77
2022/03/27 03:31:17;;;;;;;2.97;1.40;;;;;;;16.73;63.52;100180.94;4931377;29;20056;-83
2022/03/27 03:33:45;;;;;;;3.15;1.50;;;;;;;16.70;64.36;100188.81;4931984;29;20510;-80
2022/03/27 03:36:15;;;;;;;3.58;1.33;;;;;;;16.69;64.69;100190.53;4931200;29;20112;-78
2022/03/27 03:38:44;;;;;;;2.47;1.45;;;;;;;16.68;65.21;100187.94;4931937;29;20509;-74
2022/03/27 03:41:12;;;;;;;2.47;1.33;;;;;;;16.65;65.31;100185.34;4932078;29;20058;-77
2022/03/27 03:43:41;;;;;;;4.70;1.60;;;;;;;16.62;64.95;100183.59;4931600;29;20568;-74
2022/03/27 03:46:09;;;;;;;4.93;1.80;;;;;;;16.57;64.35;100184.50;4931617;29;20110;-75
2022/03/27 03:48:39;;;;;;;5.13;1.88;;;;;;;16.54;65.45;100181.03;4932193;29;20106;-75
2022/03/27 03:51:08;;;;;;;2.53;1.60;;;;;;;16.52;65.28;100174.94;4932225;29;20136;-76
2022/03/27 03:53:36;;;;;;;3.83;1.65;;;;;;;16.51;65.25;100178.41;4934156;29;20107;-75
2022/03/27 03:56:05;;;;;;;3.15;1.73;;;;;;;16.48;66.45;100175.84;4932593;29;20043;-75
2022/03/27 03:58:34;;;;;;;3.20;1.48;;;;;;;16.46;66.39;100182.78;4932155;29;20079;-79
2022/03/27 04:01:03;;;;;;;3.58;1.83;;;;;;;16.43;66.02;100180.22;4931646;29;20513;-74
2022/03/27 04:03:32;;;;;;;3.72;2.00;;;;;;;16.40;66.16;100171.50;4930962;29;20051;-76
2022/03/27 04:06:02;;;;;;;2.33;1.63;;;;;;;16.37;66.70;100175.00;4931922;29;20078;-76
2022/03/27 04:08:31;;;;;;;5.05;1.95;;;;;;;16.34;66.84;100175.03;4935469;28;20114;-75
2022/03/27 04:10:59;;;;;;;3.90;1.58;;;;;;;16.25;67.21;100162.00;4935783;29;20644;-75
2022/03/27 04:13:28;;;;;;;3.30;1.90;;;;;;;16.28;66.75;100172.41;4935484;29;20122;-74
2022/03/27 04:15:56;;;;;;;2.47;1.65;;;;;;;16.25;67.46;100167.22;4935397;29;20114;-77
2022/03/27 04:18:25;;;;;;;3.97;2.25;;;;;;;16.22;67.00;100162.03;4935488;29;20055;-78
2022/03/27 04:20:53;;;;;;;4.50;1.77;;;;;;;16.20;67.43;100163.75;4935314;29;20052;-76
2022/03/27 04:23:23;;;;;;;2.67;1.92;;;;;;;16.15;67.65;100152.44;4935010;29;20110;-76
2022/03/27 04:25:52;;;;;;;4.80;1.90;;;;;;;16.12;67.48;100154.19;4935243;29;20090;-76
2022/03/27 04:28:20;;;;;;;3.13;1.88;;;;;;;16.08;68.43;100156.81;4935464;29;20115;-76
2022/03/27 04:30:49;;;;;;;4.65;2.03;;;;;;;16.06;67.91;100145.53;4935110;29;20287;-76
2022/03/27 04:33:17;;;;;;;5.07;2.10;;;;;;;16.05;68.71;100143.78;4934548;29;20588;-76
2022/03/27 04:35:47;;;;;;;4.65;2.50;;;;;;;16.02;68.94;100135.97;4934114;29;20549;-75
2022/03/27 04:38:16;;;;;;;4.22;2.50;;;;;;;15.98;69.31;100129.88;4934593;29;20052;-77
2022/03/27 04:40:46;;;;;;;3.42;2.38;;;;;;;15.95;69.39;100127.28;4935809;29;20070;-75
2022/03/27 04:43:15;;;;;;;5.65;2.65;;;;;;;15.88;69.63;100115.13;4934766;29;20087;-77
2022/03/27 04:45:43;;;;;;;4.78;3.13;;;;;;;15.89;69.93;100127.28;4935936;29;20095;-76
2022/03/27 04:48:11;;;;;;;5.03;2.33;;;;;;;15.86;70.22;100135.13;4938734;29;20098;-77
2022/03/27 04:50:40;;;;;;;4.45;2.40;;;;;;;15.81;69.94;100134.28;4935345;29;20048;-77
2022/03/27 04:53:09;;;;;;;4.03;2.15;;;;;;;15.77;70.78;100120.38;4934301;29;20118;-75
2022/03/27 04:55:38;;;;;;;6.63;2.35;;;;;;;15.72;71.10;100131.69;4934892;29;20054;-73
2022/03/27 04:58:12;;;;;;;3.97;2.38;;;;;;;15.70;70.77;100131.66;4935425;29;20104;-74
2022/03/27 05:00:40;;;;;;;4.70;2.78;;;;;;;15.67;71.11;100129.91;4935170;29;20087;-74
2022/03/27 05:03:09;;;;;;;5.57;3.08;;;;;;;15.66;71.29;100114.25;4934648;29;20114;-74
2022/03/27 05:05:37;;;;;;;7.50;3.13;;;;;;;15.61;71.82;100122.09;4935113;29;20124;-74
2022/03/27 05:08:06;;;;;;;5.20;2.97;;;;;;;15.61;72.67;100118.63;4934661;28;20095;-74
2022/03/27 05:10:35;;;;;;;4.85;2.97;;;;;;;15.60;71.86;100119.47;4934732;29;20099;-73
2022/03/27 05:13:04;;;;;;;5.47;2.88;;;;;;;15.56;72.52;100113.41;4933901;29;20095;-75
2022/03/27 05:15:34;;;;;;;5.30;3.28;;;;;;;15.53;72.18;100118.66;4934329;29;20549;-75
2022/03/27 05:18:03;;;;;;;9.75;3.88;;;;;;;15.49;73.43;100129.94;4933393;29;20071;-75
2022/03/27 05:20:32;;;;;;;5.93;3.17;;;;;;;15.45;74.22;100122.97;4934923;29;20580;-75
2022/03/27 05:23:01;;;;;;;4.53;3.10;;;;;;;15.44;74.29;100129.06;4933995;29;20524;-75
2022/03/27 05:25:30;;;;;;;9.77;4.07;;;;;;;15.41;75.12;100116.88;4934236;29;20127;-75
2022/03/27 05:27:59;;;;;;;7.15;3.30;;;;;;;15.41;75.37;100113.41;4933592;29;20051;-75
2022/03/27 05:30:30;;;;;;;6.93;3.67;;;;;;;15.41;75.45;100109.06;4934042;29;20305;-75
2022/03/27 05:33:00;;;;;;;6.35;2.97;;;;;;;15.40;75.38;100107.34;4933557;29;20068;-75
2022/03/27 05:35:28;;;;;;;6.05;3.00;;;;;;;15.37;75.37;100096.03;4933983;29;20052;-75
2022/03/27 05:37:58;;;;;;;4.43;3.22;;;;;;;15.34;76.10;100101.25;4933972;29;20107;-75
2022/03/27 05:40:27;;;;;;;4.25;2.45;;;;;;;15.28;75.92;100089.97;4934639;29;20059;-75
2022/03/27 05:42:56;;;;;;;4.85;2.72;;;;;;;15.26;75.58;100094.31;4936786;29;20052;-75
2022/03/27 05:45:25;;;;;;;4.88;2.65;;;;;;;15.23;76.25;100096.94;4937033;29;20572;-75
2022/03/27 05:47:54;;;;;;;4.50;2.50;;;;;;;15.20;75.85;100096.91;4934562;29;20134;-74
2022/03/27 05:50:32;;;;;;;5.03;3.00;;;;;;;15.16;76.09;100092.56;4936449;29;20058;-75
2022/03/27 05:53:00;;;;;;;3.75;2.38;;;;;;;15.16;76.30;100091.69;4933693;29;20079;-75
2022/03/27 05:55:29;;;;;;;5.40;2.45;;;;;;;15.13;76.11;100083.91;4935995;29;20043;-75
2022/03/27 05:57:57;;;;;;;4.03;2.13;;;;;;;15.10;76.24;100081.31;4935036;29;20051;-74
2022/03/27 06:00:26;;;;;;;3.28;2.33;;;;;;;15.07;76.69;100079.53;4934579;29;20143;-74
2022/03/27 06:02:55;;;;;;;3.40;2.10;;;;;;;15.02;76.66;100079.53;4932900;29;20044;-75
2022/03/27 06:05:25;;;;;;;2.90;1.92;;;;;;;14.98;76.25;100088.25;4934221;29;20252;-75
2022/03/27 06:07:54;;;;;;;2.53;1.90;;;;;;;14.94;76.63;100091.69;4933974;28;20107;-76
2022/03/27 06:10:24;;;;;;;8.63;2.38;;;;;;;14.93;77.36;100081.25;4933906;29;20126;-76
2022/03/27 06:12:52;;;;;;;5.15;2.05;;;;;;;14.90;78.05;100082.13;4933191;29;20118;-75
2022/03/27 06:15:22;;;;;;;5.50;2.33;;;;;;;14.88;77.92;100081.25;4933418;29;20075;-75
2022/03/27 06:17:57;;;;;;;2.42;1.70;;;;;;;14.85;78.50;100083.88;4933525;29;20087;-75
2022/03/27 06:20:31;;;;;;;1.73;1.52;;;;;;;14.80;78.23;100081.25;4933316;29;20048;-75
2022/03/27 06:23:01;;;;;;;3.55;2.50;;;;;;;14.75;78.12;100083.00;4933188;29;20099;-75
2022/03/27 06:25:30;;;;;;;4.25;2.25;;;;;;;14.71;77.53;100090.81;4933492;29;20048;-76
2022/03/27 06:27:59;;;;;;;4.03;2.60;;;;;;;14.65;79.22;100086.44;4932942;29;20555;-76
2022/03/27 06:30:29;;;;;;;5.78;2.72;;;;;;;14.60;79.27;100090.78;4932247;29;20099;-75
2022/03/27 06:32:58;;;;;;;3.03;2.15;;;;;;;14.51;78.96;100095.91;4932643;29;20099;-75
2022/03/27 06:35:28;;;;;;;4.18;2.85;;;;;;;14.48;79.41;100091.59;4933068;29;20501;-75
2022/03/27 06:37:57;;;;;;;7.38;2.75;;;;;;;14.45;80.31;100092.44;4934059;29;20082;-75
2022/03/27 06:40:26;;;;;;;3.72;2.63;;;;;;;14.45;81.83;100087.25;4935788;29;20134;-75
2022/03/27 06:42:55;;;;;;;3.63;2.50;;;;;;;14.46;81.44;100083.75;4933154;29;20116;-75
2022/03/27 06:45:23;;;;;;;3.40;2.58;;;;;;;14.45;81.45;100081.13;4933426;29;20103;-75
2022/03/27 06:47:52;;;;;;;5.75;3.20;;;;;;;14.43;81.11;100080.25;4933224;29;20051;-75
2022/03/27 06:50:23;;;;;;;5.47;2.88;;;;;;;14.40;81.34;100078.53;4933017;29;20130;-75
2022/03/27 06:52:54;;;;;;;3.63;2.17;;;;;;;14.36;80.44;100076.81;4932485;29;20501;-74
2022/03/27 06:55:23;;;;;;;4.60;2.10;;;;;;;14.33;80.56;100075.91;4932805;29;20079;-74
2022/03/27 06:57:51;;;;;;;3.45;2.40;;;;;;;14.31;80.84;100078.50;4933212;29;20505;-75
2022/03/27 07:03:14;;;;;;;6.32;2.42;;;;;;;14.25;81.70;100087.16;4897581;29;20056;-75
2022/03/27 07:05:44;;;;;;;5.00;2.60;;;;;;;14.24;82.18;100081.94;4932609;29;20275;-75
2022/03/27 07:08:22;;;;;;;4.28;2.50;;;;;;;14.22;82.83;100088.88;4932917;28;20858;-75
2022/03/27 07:10:56;;;;;;;4.32;2.30;;;;;;;14.13;82.54;100079.31;4913598;29;20525;-75
2022/03/27 07:13:25;;;;;;;3.70;2.53;;;;;;;14.17;83.35;100086.25;4919335;29;20135;-75
2022/03/27 07:15:53;;;;;;;5.03;2.83;;;;;;;14.15;83.36;100082.75;4932674;29;20098;-75
2022/03/27 07:18:22;;;;;;;6.15;3.38;;;;;;;14.09;83.96;100072.34;4931675;29;20506;-75
2022/03/27 07:20:51;;;;;;;6.82;2.85;;;;;;;14.08;83.93;100075.81;4932459;29;20126;-76
2022/03/27 07:23:22;;;;;;;4.65;2.55;;;;;;;14.02;84.46;100074.06;4931768;29;20498;-76
2022/03/27 07:25:55;;;;;;;4.75;2.70;;;;;;;13.98;84.82;100061.91;4931621;29;20118;-75
2022/03/27 07:28:24;;;;;;;4.68;2.50;;;;;;;13.95;85.21;100069.69;4931891;29;20134;-76
2022/03/27 07:30:53;;;;;;;3.20;1.80;;;;;;;13.90;86.93;100071.38;4932315;29;20062;-75
2022/03/27 07:33:21;;;;;;;3.88;2.33;;;;;;;13.91;88.06;100075.75;4932010;29;20098;-75
2022/03/27 07:35:50;;;;;;;4.20;2.05;;;;;;;13.89;88.69;100056.66;4935117;29;20043;-74
2022/03/27 07:38:20;;;;;;;4.50;2.45;;;;;;;13.89;89.56;100064.47;4932482;29;20048;-75
2022/03/27 07:40:49;;;;;;;2.42;1.83;;;;;;;13.87;89.81;100053.19;4932498;29;20082;-74
2022/03/27 07:43:17;;;;;;;2.47;1.70;;;;;;;13.85;88.72;100054.91;4931721;29;20062;-74
2022/03/27 07:45:46;;;;;;;2.97;2.30;;;;;;;13.79;88.17;100052.28;4932072;29;20185;-75
2022/03/27 07:48:14;;;;;;;5.47;2.08;;;;;;;13.77;89.65;100057.47;4931828;29;20126;-75
2022/03/27 07:50:44;;;;;;;4.40;2.08;;;;;;;13.77;90.79;100065.28;4932270;29;20112;-74
2022/03/27 07:53:12;;;;;;;6.45;2.00;;;;;;;13.69;89.71;100058.28;4931546;29;20051;-75
2022/03/27 07:55:42;;;;;;;2.72;1.77;;;;;;;13.62;90.46;100046.97;4932086;29;20119;-75
2022/03/27 07:58:11;;;;;;;3.30;1.70;;;;;;;13.64;94.03;100049.59;4932105;29;20107;-75
2022/03/27 08:00:39;;;;;;;3.55;2.47;;;;;;;13.62;94.03;100049.56;4931798;29;20741;-75
2022/03/27 08:03:08;;;;;;;4.60;1.90;;;;;;;13.61;92.24;100043.50;4931441;29;20134;-75
2022/03/27 08:05:37;;;;;;;5.15;1.92;;;;;;;13.58;92.32;100046.09;4932325;29;20058;-75
2022/03/27 08:08:05;;;;;;;4.72;2.03;;;;;;;13.58;95.35;100042.63;4931902;29;20498;-75
2022/03/27 08:10:34;;;;;;;2.22;1.88;;;;;;;13.55;95.98;100040.00;4918712;28;20459;-75
2022/03/27 08:13:04;;;;;;;3.45;1.70;;;;;;;13.54;97.78;100046.94;4916041;29;20107;-75
2022/03/27 08:15:33;;;;;;;2.40;1.70;;;;;;;13.52;96.98;100047.78;4931925;29;20055;-75
2022/03/27 08:18:01;;;;;;;3.88;2.05;;;;;;;13.50;99.74;100044.31;4931948;29;20052;-75
2022/03/27 08:20:30;;;;;;;3.40;2.08;;;;;;;13.49;100.00;100043.44;4932218;29;20111;-75
2022/03/27 08:22:59;;;;;;;3.53;2.15;;;;;;;13.48;100.00;100036.50;4931733;29;20052;-75
2022/03/27 08:28:15;;;;;;;2.03;1.50;;;;;;;13.45;100.00;100035.63;4932164;29;20058;-75
2022/03/27 08:30:44;;;;;;;4.85;2.08;;;;;;;13.40;100.00;100033.00;4933649;29;20055;-75
2022/03/27 08:33:12;;;;;;;2.58;1.70;;;;;;;13.36;100.00;100031.22;4933311;29;20106;-75
2022/03/27 08:35:42;;;;;;;4.18;1.75;;;;;;;13.35;100.00;100035.56;4932477;29;20442;-75
2022/03/27 08:38:11;;;;;;;4.22;1.60;;;;;;;13.34;100.00;100038.16;4931920;29;20052;-75
2022/03/27 08:40:40;;;;;;;2.78;1.65;;;;;;;13.30;100.00;100034.66;4931534;29;20083;-74
2022/03/27 08:43:12;;;;;;;4.72;2.00;;;;;;;13.27;100.00;100031.16;4930673;29;20561;-75
2022/03/27 08:45:43;;;;;;;4.13;2.10;;;;;;;13.25;100.00;100025.94;4931638;29;20048;-75
2022/03/27 08:48:12;;;;;;;2.17;1.50;;;;;;;13.21;100.00;100029.34;4931368;29;20294;-74
2022/03/27 08:50:46;;;;;;;3.85;1.60;;;;;;;13.21;100.00;100035.41;4931341;29;20112;-74
2022/03/27 08:53:20;;;;;;;3.35;1.88;;;;;;;13.20;100.00;100041.47;4932599;29;20134;-75
2022/03/27 08:55:57;;;;;;;3.35;1.60;;;;;;;13.19;100.00;100039.75;4934851;29;20138;-75
2022/03/27 08:58:33;;;;;;;2.85;1.50;;;;;;;13.16;100.00;100038.84;4935363;29;20055;-75
2022/03/27 09:01:04;;;;;;;8.48;2.00;;;;;;;13.13;100.00;100047.50;4935019;29;20553;-75
2022/03/27 09:03:32;;;;;;;3.03;1.65;;;;;;;13.10;100.00;100041.38;4934979;29;20052;-75
2022/03/27 09:06:01;;;;;;;3.55;1.75;;;;;;;13.07;100.00;100039.63;4934763;29;20059;-75
2022/03/27 09:08:30;;;;;;;3.13;1.88;;;;;;;13.04;100.00;100036.16;4935128;28;20529;-75
2022/03/27 09:11:01;;;;;;;3.53;1.90;;;;;;;12.99;100.00;100030.94;4897313;29;20497;-76
2022/03/27 09:13:30;;;;;;;3.67;1.70;;;;;;;13.00;100.00;100037.84;4897144;29;20056;-75
2022/03/27 09:16:03;;;;;;;4.90;1.73;;;;;;;12.87;100.00;100033.41;4897090;29;20045;-74
2022/03/27 09:18:45;;;;;;;5.68;1.83;;;;;;;12.86;100.00;100049.88;4897898;29;20089;-75
2022/03/27 09:21:13;;;;;;;3.20;1.30;;;;;;;12.76;100.00;100046.31;4896853;29;20088;-75
2022/03/27 09:23:42;;;;;;;4.95;1.75;;;;;;;12.68;100.00;100041.03;4896764;29;20652;-75
2022/03/27 09:26:13;;;;;;;4.95;1.67;;;;;;;12.64;100.00;100039.25;4896736;29;20084;-75
2022/03/27 09:28:44;;;;;;;4.03;1.80;;;;;;;12.57;100.00;100040.06;4900460;29;20049;-75
2022/03/27 09:31:25;;;;;;;4.32;1.85;;;;;;;12.49;100.00;100044.31;4897717;29;20139;-75
2022/03/27 09:33:55;;;;;;;3.55;1.67;;;;;;;12.48;100.00;100047.75;4896921;29;20049;-74
2022/03/27 09:36:25;;;;;;;3.90;1.20;;;;;;;12.47;100.00;100038.25;4896951;29;20181;-75
2022/03/27 09:39:09;;;;;;;5.85;2.28;;;;;;;12.46;100.00;100031.28;4896652;29;20056;-75
2022/03/27 09:41:40;;;;;;;2.30;1.73;;;;;;;12.44;100.00;100025.22;4896386;29;20056;-75
2022/03/27 09:44:11;;;;;;;6.20;1.30;;;;;;;12.46;100.00;100021.81;4896382;29;20056;-75
2022/03/27 09:46:52;;;;;;;2.30;1.42;;;;;;;12.44;100.00;100022.63;4896632;29;20498;-75
2022/03/27 09:49:22;;;;;;;3.78;1.52;;;;;;;12.40;100.00;100023.47;4896141;29;20064;-75
2022/03/27 09:51:58;;;;;;;2.90;1.38;;;;;;;12.33;100.00;100018.22;4896398;29;20519;-75
2022/03/27 09:54:29;;;;;;;4.68;1.42;;;;;;;12.30;100.00;100012.09;4896785;29;20498;-76
2022/03/27 09:56:57;;;;;;;2.53;1.45;;;;;;;12.34;100.00;100019.06;4896630;29;20510;-76
2022/03/27 09:59:31;;;;;;;4.22;1.50;;;;;;;12.34;100.00;100024.25;4895269;29;20112;-76
2022/03/27 10:02:22;;;;;;;2.03;1.60;;;;;;;12.34;100.00;100025.13;4895548;29;20056;-76
2022/03/27 10:04:55;;;;;;;3.00;1.42;;;;;;;12.30;100.00;100017.28;4895818;29;20090;-76
2022/03/27 10:07:25;;;;;;;4.07;1.70;;;;;;;12.28;100.00;100013.84;4895844;29;20096;-76
2022/03/27 10:09:54;;;;;;;1.83;1.30;;;;;;;12.26;100.00;100021.59;4917256;28;20059;-76
2022/03/27 10:12:28;;;;;;;5.28;1.88;;;;;;;12.22;100.00;100017.22;4933787;29;20110;-76
2022/03/27 10:15:00;;;;;;;2.85;1.55;;;;;;;12.17;100.00;100010.25;4933654;29;20055;-77
2022/03/27 10:17:33;;;;;;;3.33;2.08;;;;;;;12.17;100.00;100021.50;4933766;29;20052;-76
2022/03/27 10:20:06;;;;;;;1.90;1.52;;;;;;;12.15;100.00;100026.66;4933949;29;20127;-76
2022/03/27 10:22:39;;;;;;;2.80;1.50;;;;;;;12.14;100.00;100027.53;4933706;29;20055;-76
2022/03/27 10:25:08;;;;;;;;;;;;;;;12.11;100.00;100021.41;4937519;29;20056;-76
2022/03/27 10:27:39;;;;;;;3.88;1.15;;;;;;;12.06;100.00;100017.91;4934214;29;19934;-76
2022/03/27 10:30:09;;;;;;;2.78;1.45;;;;;;;12.07;100.00;100027.41;4933836;29;20051;-76
2022/03/27 10:32:41;;;;;;;1.88;1.27;;;;;;;12.04;100.00;100019.59;4933097;29;20107;-77
2022/03/27 10:35:23;;;;;;;2.03;1.30;;;;;;;12.04;100.00;100019.59;4933409;29;20580;-75
2022/03/27 10:38:00;;;;;;;2.45;1.55;;;;;;;12.02;100.00;100021.31;4933059;29;20056;-75
2022/03/27 10:40:36;;;;;;;2.90;1.58;;;;;;;12.00;100.00;100012.63;4933169;29;20055;-75
2022/03/27 10:43:14;;;;;;;2.45;1.60;;;;;;;11.98;100.00;100015.22;4932368;29;20055;-75
2022/03/27 10:45:42;;;;;;;4.72;1.83;;;;;;;11.95;100.00;100010.00;4931702;29;20047;-75
2022/03/27 10:48:14;;;;;;;3.30;1.48;;;;;;;11.94;100.00;100008.25;4932597;29;20083;-74
2022/03/27 10:50:51;;;;;;;4.10;1.30;;;;;;;11.91;100.00;100014.28;4932352;29;20087;-75
2022/03/27 10:53:21;;;;;;;2.58;1.48;;;;;;;11.88;100.00;100022.00;4932198;29;20286;-75
2022/03/27 10:55:52;;;;;;;2.85;1.60;;;;;;;11.87;100.00;100020.28;4932973;29;20063;-74
2022/03/27 10:58:39;;;;;;;2.92;1.20;;;;;;;11.87;100.00;100014.19;4932577;29;20055;-75
2022/03/27 11:01:09;;;;;;;1.90;1.38;;;;;;;11.82;100.00;100011.56;4932443;29;20047;-75
2022/03/27 11:04:12;;;;;;;4.13;1.63;;;;;;;11.78;100.00;100014.94;4932353;29;20054;-75
2022/03/27 11:06:43;;;;;;;2.80;1.25;;;;;;;11.78;100.00;100017.53;4932454;29;20087;-75
2022/03/27 11:09:30;;;;;;;2.97;1.33;;;;;;;11.75;100.00;100022.69;4932283;28;20242;-75
2022/03/27 11:11:59;;;;;;;2.55;1.50;;;;;;;11.75;100.00;100017.50;4932443;29;20057;-75
2022/03/27 11:15:02;;;;;;;2.47;1.45;;;;;;;11.74;100.00;100018.34;4932903;29;20048;-75
2022/03/27 11:17:42;;;;;;;2.65;1.70;;;;;;;11.72;100.00;100022.63;4932883;29;20067;-75
2022/03/27 11:20:38;;;;;;;1.70;1.33;;;;;;;11.69;100.00;100012.25;4914246;29;20048;-75
2022/03/27 11:23:24;;;;;;;2.08;1.35;;;;;;;11.68;100.00;100010.47;4916382;29;20111;-75
2022/03/27 11:25:52;;;;;;;1.58;1.33;;;;;;;11.66;100.00;100007.00;4914086;29;20110;-76
2022/03/27 11:28:22;;;;;;;1.92;1.70;;;;;;;11.63;100.00;100010.41;4913467;29;20052;-75
2022/03/27 11:31:26;;;;;;;3.40;1.80;;;;;;;11.63;100.00;100012.16;4913911;29;20510;-75
2022/03/27 11:34:17;;;;;;;3.50;1.40;;;;;;;11.59;100.00;100018.13;4913425;29;20051;-75
2022/03/27 11:37:11;;;;;;;1.75;1.40;;;;;;;11.52;100.00;100009.41;4912811;29;20136;-75
2022/03/27 11:39:40;;;;;;;2.30;1.38;;;;;;;11.51;100.00;100012.84;4913506;29;20087;-76
2022/03/27 11:42:33;;;;;;;2.17;1.40;;;;;;;11.50;100.00;100019.75;4912667;29;20143;-75
2022/03/27 11:45:19;;;;;;;3.85;1.52;;;;;;;11.46;100.00;100015.38;4913341;29;20486;-75
2022/03/27 11:47:50;;;;;;;2.03;1.45;;;;;;;11.42;100.00;100018.78;4913006;29;20048;-75
2022/03/27 11:50:28;;;;;;;5.13;1.25;;;;;;;11.41;100.00;100019.63;4913080;29;20056;-75